Benzonia, Michigan
Current Conditions -  °F | °C
As of 12:54 PM on Saturday 25 Oct 2014 (Local Time) from KFKS Reporting Station
Clear Clear  
Wind Chill: 60°   Ceiling: Unl
Heat Index: 60°   Visibility: 10mi
Dew Point: 43°   Wind: 13mph
Humidity: 52%   Direction: 270°W
Pressure: 29.79"   Gusts: 21mph
Location:  44.62°N, 86.1°W
Report Text: KFKS 251654Z AUTO 27011G18KT 10SM CLR 16/06 A2979 RMK AO2 T01580060
Loading
Personal Weather Stations






























Interactive Weather Map
Tropical Storm Tracking
New forecast layout! Learn more

10-Day Weather Forecast

Advertisements
Track Severe Weather on mobile